sensor_id;sensor_type;location;lat;lon;timestamp;P1;durP1;ratioP1;P2;durP2;ratioP2
6757;SDS011;3416;53.074;8.822;2022-08-16T00:02:22;29.30;;;26.63;;
6757;SDS011;3416;53.074;8.822;2022-08-16T00:04:49;30.40;;;27.27;;
6757;SDS011;3416;53.074;8.822;2022-08-16T00:07:16;25.90;;;23.40;;
6757;SDS011;3416;53.074;8.822;2022-08-16T00:09:43;35.10;;;31.47;;
6757;SDS011;3416;53.074;8.822;2022-08-16T00:12:12;26.57;;;23.97;;
6757;SDS011;3416;53.074;8.822;2022-08-16T00:14:39;30.37;;;27.47;;
6757;SDS011;3416;53.074;8.822;2022-08-16T00:17:06;27.93;;;25.33;;
6757;SDS011;3416;53.074;8.822;2022-08-16T00:19:33;35.93;;;29.20;;
6757;SDS011;3416;53.074;8.822;2022-08-16T00:22:00;29.47;;;26.47;;
6757;SDS011;3416;53.074;8.822;2022-08-16T00:24:28;28.40;;;25.53;;
6757;SDS011;3416;53.074;8.822;2022-08-16T00:26:58;27.43;;;24.83;;
6757;SDS011;3416;53.074;8.822;2022-08-16T00:29:27;26.43;;;24.03;;
6757;SDS011;3416;53.074;8.822;2022-08-16T00:31:55;23.10;;;20.63;;
6757;SDS011;3416;53.074;8.822;2022-08-16T00:34:23;24.40;;;22.00;;
6757;SDS011;3416;53.074;8.822;2022-08-16T00:36:49;24.20;;;21.87;;
6757;SDS011;3416;53.074;8.822;2022-08-16T00:39:17;21.20;;;19.30;;
6757;SDS011;3416;53.074;8.822;2022-08-16T00:41:45;23.53;;;21.43;;
6757;SDS011;3416;53.074;8.822;2022-08-16T00:44:13;24.33;;;21.83;;
6757;SDS011;3416;53.074;8.822;2022-08-16T00:46:45;24.40;;;21.83;;
6757;SDS011;3416;53.074;8.822;2022-08-16T00:49:18;22.97;;;20.60;;
6757;SDS011;3416;53.074;8.822;2022-08-16T00:51:45;24.37;;;21.97;;
6757;SDS011;3416;53.074;8.822;2022-08-16T00:54:13;24.20;;;21.87;;
6757;SDS011;3416;53.074;8.822;2022-08-16T00:56:41;23.80;;;21.57;;
6757;SDS011;3416;53.074;8.822;2022-08-16T00:59:10;23.07;;;20.87;;
6757;SDS011;3416;53.074;8.822;2022-08-16T01:01:39;24.43;;;21.87;;
6757;SDS011;3416;53.074;8.822;2022-08-16T01:04:08;22.27;;;20.07;;
6757;SDS011;3416;53.074;8.822;2022-08-16T01:06:36;20.73;;;18.60;;
6757;SDS011;3416;53.074;8.822;2022-08-16T01:09:04;20.13;;;18.33;;
6757;SDS011;3416;53.074;8.822;2022-08-16T01:11:33;21.83;;;19.83;;
6757;SDS011;3416;53.074;8.822;2022-08-16T01:14:03;23.80;;;21.63;;
6757;SDS011;3416;53.074;8.822;2022-08-16T01:16:35;21.40;;;19.27;;
6757;SDS011;3416;53.074;8.822;2022-08-16T01:19:07;22.50;;;20.10;;
6757;SDS011;3416;53.074;8.822;2022-08-16T01:21:43;21.03;;;18.20;;
6757;SDS011;3416;53.074;8.822;2022-08-16T01:24:20;21.90;;;19.67;;
6757;SDS011;3416;53.074;8.822;2022-08-16T01:26:53;20.83;;;19.00;;
6757;SDS011;3416;53.074;8.822;2022-08-16T01:29:28;23.30;;;21.20;;
6757;SDS011;3416;53.074;8.822;2022-08-16T01:31:59;21.77;;;19.70;;
6757;SDS011;3416;53.074;8.822;2022-08-16T01:34:26;21.70;;;19.60;;
6757;SDS011;3416;53.074;8.822;2022-08-16T01:37:00;23.53;;;21.13;;
6757;SDS011;3416;53.074;8.822;2022-08-16T01:39:30;21.90;;;19.87;;
6757;SDS011;3416;53.074;8.822;2022-08-16T01:41:58;19.63;;;17.73;;
6757;SDS011;3416;53.074;8.822;2022-08-16T01:44:25;19.93;;;18.00;;
6757;SDS011;3416;53.074;8.822;2022-08-16T01:46:53;21.40;;;19.40;;
6757;SDS011;3416;53.074;8.822;2022-08-16T01:49:22;21.83;;;18.10;;
6757;SDS011;3416;53.074;8.822;2022-08-16T01:51:53;23.03;;;20.10;;
6757;SDS011;3416;53.074;8.822;2022-08-16T01:54:21;22.93;;;20.83;;
6757;SDS011;3416;53.074;8.822;2022-08-16T01:56:49;24.47;;;22.20;;
6757;SDS011;3416;53.074;8.822;2022-08-16T01:59:17;23.60;;;21.30;;
6757;SDS011;3416;53.074;8.822;2022-08-16T02:01:45;24.47;;;22.17;;
6757;SDS011;3416;53.074;8.822;2022-08-16T02:04:14;22.77;;;20.67;;
6757;SDS011;3416;53.074;8.822;2022-08-16T02:06:42;25.57;;;23.17;;
6757;SDS011;3416;53.074;8.822;2022-08-16T02:09:09;22.80;;;20.50;;
6757;SDS011;3416;53.074;8.822;2022-08-16T02:11:37;25.40;;;22.13;;
6757;SDS011;3416;53.074;8.822;2022-08-16T02:14:07;25.63;;;21.90;;
6757;SDS011;3416;53.074;8.822;2022-08-16T02:16:34;23.40;;;21.20;;
6757;SDS011;3416;53.074;8.822;2022-08-16T02:19:01;25.93;;;22.20;;
6757;SDS011;3416;53.074;8.822;2022-08-16T02:21:29;25.30;;;22.80;;
6757;SDS011;3416;53.074;8.822;2022-08-16T02:23:57;24.73;;;22.10;;
6757;SDS011;3416;53.074;8.822;2022-08-16T02:26:24;25.63;;;23.27;;
6757;SDS011;3416;53.074;8.822;2022-08-16T02:28:51;24.80;;;22.50;;
6757;SDS011;3416;53.074;8.822;2022-08-16T02:31:19;25.17;;;22.80;;
6757;SDS011;3416;53.074;8.822;2022-08-16T02:33:46;24.10;;;21.70;;
6757;SDS011;3416;53.074;8.822;2022-08-16T02:36:14;22.93;;;20.60;;
6757;SDS011;3416;53.074;8.822;2022-08-16T02:38:41;24.23;;;21.90;;
6757;SDS011;3416;53.074;8.822;2022-08-16T02:41:08;23.33;;;21.03;;
6757;SDS011;3416;53.074;8.822;2022-08-16T02:43:35;24.10;;;21.80;;
6757;SDS011;3416;53.074;8.822;2022-08-16T02:46:03;24.97;;;22.57;;
6757;SDS011;3416;53.074;8.822;2022-08-16T02:48:33;22.47;;;20.27;;
6757;SDS011;3416;53.074;8.822;2022-08-16T02:51:03;22.80;;;20.70;;
6757;SDS011;3416;53.074;8.822;2022-08-16T02:53:31;24.40;;;22.10;;
6757;SDS011;3416;53.074;8.822;2022-08-16T02:55:58;24.93;;;22.60;;
6757;SDS011;3416;53.074;8.822;2022-08-16T02:58:25;21.30;;;19.20;;
6757;SDS011;3416;53.074;8.822;2022-08-16T03:00:53;24.47;;;22.13;;
6757;SDS011;3416;53.074;8.822;2022-08-16T03:03:21;31.23;;;24.60;;
6757;SDS011;3416;53.074;8.822;2022-08-16T03:05:50;28.00;;;25.40;;
6757;SDS011;3416;53.074;8.822;2022-08-16T03:08:17;26.70;;;24.10;;
6757;SDS011;3416;53.074;8.822;2022-08-16T03:10:45;26.20;;;23.57;;
6757;SDS011;3416;53.074;8.822;2022-08-16T03:13:13;23.10;;;21.00;;
6757;SDS011;3416;53.074;8.822;2022-08-16T03:15:40;24.20;;;22.00;;
6757;SDS011;3416;53.074;8.822;2022-08-16T03:18:08;29.13;;;26.33;;
6757;SDS011;3416;53.074;8.822;2022-08-16T03:20:34;26.60;;;23.97;;
6757;SDS011;3416;53.074;8.822;2022-08-16T03:23:04;25.40;;;22.97;;
6757;SDS011;3416;53.074;8.822;2022-08-16T03:25:32;28.40;;;25.30;;
6757;SDS011;3416;53.074;8.822;2022-08-16T03:28:00;26.43;;;23.93;;
6757;SDS011;3416;53.074;8.822;2022-08-16T03:30:29;27.63;;;25.10;;
6757;SDS011;3416;53.074;8.822;2022-08-16T03:32:59;30.63;;;27.80;;
6757;SDS011;3416;53.074;8.822;2022-08-16T03:35:29;31.07;;;27.93;;
6757;SDS011;3416;53.074;8.822;2022-08-16T03:37:59;29.70;;;26.93;;
6757;SDS011;3416;53.074;8.822;2022-08-16T03:40:29;25.87;;;23.33;;
6757;SDS011;3416;53.074;8.822;2022-08-16T03:42:56;28.27;;;25.57;;
6757;SDS011;3416;53.074;8.822;2022-08-16T03:45:24;28.10;;;25.37;;
6757;SDS011;3416;53.074;8.822;2022-08-16T03:47:51;27.60;;;24.83;;
6757;SDS011;3416;53.074;8.822;2022-08-16T03:50:18;24.93;;;22.73;;
6757;SDS011;3416;53.074;8.822;2022-08-16T03:52:46;25.97;;;23.57;;
6757;SDS011;3416;53.074;8.822;2022-08-16T03:55:13;30.30;;;27.17;;
6757;SDS011;3416;53.074;8.822;2022-08-16T03:57:42;28.47;;;25.90;;
6757;SDS011;3416;53.074;8.822;2022-08-16T04:00:11;27.33;;;24.83;;
6757;SDS011;3416;53.074;8.822;2022-08-16T04:02:42;26.93;;;24.43;;
6757;SDS011;3416;53.074;8.822;2022-08-16T04:05:10;27.13;;;24.40;;
6757;SDS011;3416;53.074;8.822;2022-08-16T04:07:38;25.00;;;22.77;;
6757;SDS011;3416;53.074;8.822;2022-08-16T04:10:06;29.10;;;26.00;;
6757;SDS011;3416;53.074;8.822;2022-08-16T04:12:35;29.77;;;26.93;;
6757;SDS011;3416;53.074;8.822;2022-08-16T04:15:04;26.53;;;23.93;;
6757;SDS011;3416;53.074;8.822;2022-08-16T04:17:33;27.27;;;24.67;;
6757;SDS011;3416;53.074;8.822;2022-08-16T04:19:59;26.93;;;24.33;;
6757;SDS011;3416;53.074;8.822;2022-08-16T04:22:28;27.97;;;24.83;;
6757;SDS011;3416;53.074;8.822;2022-08-16T04:24:55;26.63;;;24.20;;
6757;SDS011;3416;53.074;8.822;2022-08-16T04:27:21;29.37;;;26.10;;
6757;SDS011;3416;53.074;8.822;2022-08-16T04:29:48;29.73;;;26.60;;
6757;SDS011;3416;53.074;8.822;2022-08-16T04:32:17;26.60;;;24.00;;
6757;SDS011;3416;53.074;8.822;2022-08-16T04:34:44;28.77;;;25.87;;
6757;SDS011;3416;53.074;8.822;2022-08-16T04:37:11;27.87;;;25.03;;
6757;SDS011;3416;53.074;8.822;2022-08-16T04:39:38;25.53;;;23.17;;
6757;SDS011;3416;53.074;8.822;2022-08-16T04:42:05;31.10;;;27.90;;
6757;SDS011;3416;53.074;8.822;2022-08-16T04:44:32;27.93;;;25.33;;
6757;SDS011;3416;53.074;8.822;2022-08-16T04:46:59;30.73;;;27.67;;
6757;SDS011;3416;53.074;8.822;2022-08-16T04:49:28;28.00;;;25.27;;
6757;SDS011;3416;53.074;8.822;2022-08-16T04:51:56;27.87;;;25.00;;
6757;SDS011;3416;53.074;8.822;2022-08-16T04:54:23;28.70;;;26.00;;
6757;SDS011;3416;53.074;8.822;2022-08-16T04:56:49;29.53;;;26.70;;
6757;SDS011;3416;53.074;8.822;2022-08-16T04:59:16;30.97;;;27.67;;
6757;SDS011;3416;53.074;8.822;2022-08-16T05:01:43;32.63;;;29.37;;
6757;SDS011;3416;53.074;8.822;2022-08-16T05:04:11;31.70;;;28.57;;
6757;SDS011;3416;53.074;8.822;2022-08-16T05:06:40;34.07;;;27.20;;
6757;SDS011;3416;53.074;8.822;2022-08-16T05:09:07;29.07;;;26.30;;
6757;SDS011;3416;53.074;8.822;2022-08-16T05:11:34;28.73;;;25.67;;
6757;SDS011;3416;53.074;8.822;2022-08-16T05:14:01;26.67;;;23.83;;
6757;SDS011;3416;53.074;8.822;2022-08-16T05:16:29;26.40;;;23.93;;
6757;SDS011;3416;53.074;8.822;2022-08-16T05:18:58;25.93;;;23.10;;
6757;SDS011;3416;53.074;8.822;2022-08-16T05:21:26;26.80;;;24.40;;
6757;SDS011;3416;53.074;8.822;2022-08-16T05:23:57;23.87;;;21.70;;
6757;SDS011;3416;53.074;8.822;2022-08-16T05:26:26;22.80;;;20.60;;
6757;SDS011;3416;53.074;8.822;2022-08-16T05:28:55;26.33;;;23.70;;
6757;SDS011;3416;53.074;8.822;2022-08-16T05:31:23;27.13;;;24.50;;
6757;SDS011;3416;53.074;8.822;2022-08-16T05:33:55;23.57;;;21.33;;
6757;SDS011;3416;53.074;8.822;2022-08-16T05:36:24;28.10;;;25.27;;
6757;SDS011;3416;53.074;8.822;2022-08-16T05:38:51;26.00;;;23.60;;
6757;SDS011;3416;53.074;8.822;2022-08-16T05:41:22;24.90;;;22.50;;
6757;SDS011;3416;53.074;8.822;2022-08-16T05:43:49;26.60;;;24.07;;
6757;SDS011;3416;53.074;8.822;2022-08-16T05:46:16;27.37;;;24.70;;
6757;SDS011;3416;53.074;8.822;2022-08-16T05:48:44;22.27;;;20.00;;
6757;SDS011;3416;53.074;8.822;2022-08-16T05:51:13;23.50;;;21.20;;
6757;SDS011;3416;53.074;8.822;2022-08-16T05:53:40;26.07;;;23.63;;
6757;SDS011;3416;53.074;8.822;2022-08-16T05:56:08;23.43;;;20.30;;
6757;SDS011;3416;53.074;8.822;2022-08-16T05:58:37;24.43;;;21.23;;
6757;SDS011;3416;53.074;8.822;2022-08-16T06:01:04;23.80;;;21.20;;
6757;SDS011;3416;53.074;8.822;2022-08-16T06:03:31;21.90;;;19.70;;
6757;SDS011;3416;53.074;8.822;2022-08-16T06:05:58;24.50;;;22.00;;
6757;SDS011;3416;53.074;8.822;2022-08-16T06:08:25;21.97;;;19.77;;
6757;SDS011;3416;53.074;8.822;2022-08-16T06:10:54;22.73;;;20.40;;
6757;SDS011;3416;53.074;8.822;2022-08-16T06:13:24;24.27;;;20.83;;
6757;SDS011;3416;53.074;8.822;2022-08-16T06:15:54;22.63;;;20.43;;
6757;SDS011;3416;53.074;8.822;2022-08-16T06:18:22;19.27;;;17.47;;
6757;SDS011;3416;53.074;8.822;2022-08-16T06:20:49;21.77;;;19.70;;
6757;SDS011;3416;53.074;8.822;2022-08-16T06:23:16;20.70;;;18.70;;
6757;SDS011;3416;53.074;8.822;2022-08-16T06:25:44;21.67;;;19.57;;
6757;SDS011;3416;53.074;8.822;2022-08-16T06:28:11;20.07;;;18.07;;
6757;SDS011;3416;53.074;8.822;2022-08-16T06:30:39;21.97;;;19.73;;
6757;SDS011;3416;53.074;8.822;2022-08-16T06:33:10;20.90;;;19.10;;
6757;SDS011;3416;53.074;8.822;2022-08-16T06:35:38;21.63;;;19.43;;
6757;SDS011;3416;53.074;8.822;2022-08-16T06:38:07;18.63;;;17.00;;
6757;SDS011;3416;53.074;8.822;2022-08-16T06:40:34;18.20;;;15.30;;
6757;SDS011;3416;53.074;8.822;2022-08-16T06:43:01;20.17;;;18.10;;
6757;SDS011;3416;53.074;8.822;2022-08-16T06:45:28;19.30;;;17.30;;
6757;SDS011;3416;53.074;8.822;2022-08-16T06:47:56;19.97;;;18.00;;
6757;SDS011;3416;53.074;8.822;2022-08-16T06:50:24;21.87;;;17.40;;
6757;SDS011;3416;53.074;8.822;2022-08-16T06:52:51;18.90;;;17.10;;
6757;SDS011;3416;53.074;8.822;2022-08-16T06:55:18;20.10;;;18.20;;
6757;SDS011;3416;53.074;8.822;2022-08-16T06:57:45;23.20;;;17.57;;
6757;SDS011;3416;53.074;8.822;2022-08-16T07:00:13;17.93;;;15.97;;
6757;SDS011;3416;53.074;8.822;2022-08-16T07:02:42;18.70;;;16.97;;
6757;SDS011;3416;53.074;8.822;2022-08-16T07:05:11;16.00;;;14.60;;
6757;SDS011;3416;53.074;8.822;2022-08-16T07:07:42;18.17;;;16.40;;
6757;SDS011;3416;53.074;8.822;2022-08-16T07:10:10;16.80;;;15.17;;
6757;SDS011;3416;53.074;8.822;2022-08-16T07:12:37;16.53;;;14.93;;
6757;SDS011;3416;53.074;8.822;2022-08-16T07:15:05;17.63;;;15.87;;
6757;SDS011;3416;53.074;8.822;2022-08-16T07:17:33;17.73;;;16.00;;
6757;SDS011;3416;53.074;8.822;2022-08-16T07:20:02;16.70;;;15.23;;
6757;SDS011;3416;53.074;8.822;2022-08-16T07:22:30;18.27;;;16.00;;
6757;SDS011;3416;53.074;8.822;2022-08-16T07:24:59;15.43;;;14.13;;
6757;SDS011;3416;53.074;8.822;2022-08-16T07:27:26;16.27;;;14.40;;
6757;SDS011;3416;53.074;8.822;2022-08-16T07:29:53;17.23;;;14.43;;
6757;SDS011;3416;53.074;8.822;2022-08-16T07:32:20;16.43;;;14.60;;
6757;SDS011;3416;53.074;8.822;2022-08-16T07:34:48;13.50;;;12.30;;
6757;SDS011;3416;53.074;8.822;2022-08-16T07:37:14;16.80;;;15.23;;
6757;SDS011;3416;53.074;8.822;2022-08-16T07:39:42;14.90;;;12.37;;
6757;SDS011;3416;53.074;8.822;2022-08-16T07:42:10;14.63;;;13.33;;
6757;SDS011;3416;53.074;8.822;2022-08-16T07:44:38;13.57;;;12.37;;
6757;SDS011;3416;53.074;8.822;2022-08-16T07:47:05;14.20;;;12.90;;
6757;SDS011;3416;53.074;8.822;2022-08-16T07:49:32;13.07;;;11.73;;
6757;SDS011;3416;53.074;8.822;2022-08-16T07:51:59;10.93;;;10.03;;
6757;SDS011;3416;53.074;8.822;2022-08-16T07:54:26;10.50;;;9.40;;
6757;SDS011;3416;53.074;8.822;2022-08-16T07:56:53;10.60;;;9.50;;
6757;SDS011;3416;53.074;8.822;2022-08-16T07:59:22;11.37;;;10.00;;
6757;SDS011;3416;53.074;8.822;2022-08-16T08:01:50;11.00;;;8.33;;
6757;SDS011;3416;53.074;8.822;2022-08-16T08:04:20;9.43;;;8.60;;
6757;SDS011;3416;53.074;8.822;2022-08-16T08:06:47;12.63;;;11.33;;
6757;SDS011;3416;53.074;8.822;2022-08-16T08:09:15;11.57;;;10.10;;
6757;SDS011;3416;53.074;8.822;2022-08-16T08:11:42;12.40;;;10.40;;
6757;SDS011;3416;53.074;8.822;2022-08-16T08:14:10;12.67;;;11.60;;
6757;SDS011;3416;53.074;8.822;2022-08-16T08:16:41;12.97;;;11.67;;
6757;SDS011;3416;53.074;8.822;2022-08-16T08:19:08;13.90;;;10.20;;
6757;SDS011;3416;53.074;8.822;2022-08-16T08:21:36;11.87;;;10.40;;
6757;SDS011;3416;53.074;8.822;2022-08-16T08:24:06;19.03;;;13.13;;
6757;SDS011;3416;53.074;8.822;2022-08-16T08:26:34;11.90;;;10.90;;
6757;SDS011;3416;53.074;8.822;2022-08-16T08:29:02;19.43;;;11.73;;
6757;SDS011;3416;53.074;8.822;2022-08-16T08:31:30;13.43;;;10.70;;
6757;SDS011;3416;53.074;8.822;2022-08-16T08:34:01;15.17;;;13.77;;
6757;SDS011;3416;53.074;8.822;2022-08-16T08:36:30;13.67;;;12.43;;
6757;SDS011;3416;53.074;8.822;2022-08-16T08:39:00;13.20;;;11.90;;
6757;SDS011;3416;53.074;8.822;2022-08-16T08:41:28;14.13;;;12.70;;
6757;SDS011;3416;53.074;8.822;2022-08-16T08:43:55;15.63;;;12.03;;
6757;SDS011;3416;53.074;8.822;2022-08-16T08:46:24;14.60;;;11.60;;
6757;SDS011;3416;53.074;8.822;2022-08-16T08:48:52;13.90;;;12.47;;
6757;SDS011;3416;53.074;8.822;2022-08-16T08:51:21;15.27;;;12.10;;
6757;SDS011;3416;53.074;8.822;2022-08-16T08:53:49;15.03;;;13.43;;
6757;SDS011;3416;53.074;8.822;2022-08-16T08:56:17;16.50;;;13.30;;
6757;SDS011;3416;53.074;8.822;2022-08-16T08:58:44;16.93;;;11.73;;
6757;SDS011;3416;53.074;8.822;2022-08-16T09:01:11;13.07;;;11.77;;
6757;SDS011;3416;53.074;8.822;2022-08-16T09:03:40;12.17;;;11.03;;
6757;SDS011;3416;53.074;8.822;2022-08-16T09:06:07;13.13;;;11.83;;
6757;SDS011;3416;53.074;8.822;2022-08-16T09:08:35;14.70;;;13.33;;
6757;SDS011;3416;53.074;8.822;2022-08-16T09:11:04;12.53;;;11.23;;
6757;SDS011;3416;53.074;8.822;2022-08-16T09:13:31;12.27;;;11.07;;
6757;SDS011;3416;53.074;8.822;2022-08-16T09:15:58;12.63;;;11.43;;
6757;SDS011;3416;53.074;8.822;2022-08-16T09:18:25;13.80;;;12.10;;
6757;SDS011;3416;53.074;8.822;2022-08-16T09:20:53;12.73;;;11.60;;
6757;SDS011;3416;53.074;8.822;2022-08-16T09:23:24;12.50;;;11.20;;
6757;SDS011;3416;53.074;8.822;2022-08-16T09:25:58;11.80;;;10.60;;
6757;SDS011;3416;53.074;8.822;2022-08-16T09:28:27;11.63;;;10.50;;
6757;SDS011;3416;53.074;8.822;2022-08-16T09:30:54;9.70;;;8.70;;
6757;SDS011;3416;53.074;8.822;2022-08-16T09:33:21;9.83;;;8.93;;
6757;SDS011;3416;53.074;8.822;2022-08-16T09:35:48;10.80;;;9.80;;
6757;SDS011;3416;53.074;8.822;2022-08-16T09:38:16;15.17;;;9.80;;
6757;SDS011;3416;53.074;8.822;2022-08-16T09:40:44;12.40;;;9.90;;
6757;SDS011;3416;53.074;8.822;2022-08-16T09:43:15;11.40;;;10.30;;
6757;SDS011;3416;53.074;8.822;2022-08-16T09:45:44;11.20;;;10.17;;
6757;SDS011;3416;53.074;8.822;2022-08-16T09:48:12;12.07;;;10.03;;
6757;SDS011;3416;53.074;8.822;2022-08-16T09:50:40;15.30;;;9.33;;
6757;SDS011;3416;53.074;8.822;2022-08-16T09:53:11;14.60;;;10.10;;
6757;SDS011;3416;53.074;8.822;2022-08-16T09:55:39;12.67;;;9.90;;
6757;SDS011;3416;53.074;8.822;2022-08-16T09:58:07;9.93;;;8.90;;
6757;SDS011;3416;53.074;8.822;2022-08-16T10:00:36;10.43;;;8.70;;
6757;SDS011;3416;53.074;8.822;2022-08-16T10:03:03;8.90;;;8.07;;
6757;SDS011;3416;53.074;8.822;2022-08-16T10:05:31;10.60;;;9.53;;
6757;SDS011;3416;53.074;8.822;2022-08-16T10:08:01;10.33;;;8.77;;
6757;SDS011;3416;53.074;8.822;2022-08-16T10:10:29;15.87;;;9.67;;
6757;SDS011;3416;53.074;8.822;2022-08-16T10:12:57;13.40;;;9.00;;
6757;SDS011;3416;53.074;8.822;2022-08-16T10:15:41;12.60;;;10.27;;
6757;SDS011;3416;53.074;8.822;2022-08-16T10:18:11;11.97;;;8.83;;
6757;SDS011;3416;53.074;8.822;2022-08-16T10:20:41;9.90;;;8.90;;
6757;SDS011;3416;53.074;8.822;2022-08-16T10:23:12;9.87;;;8.97;;
6757;SDS011;3416;53.074;8.822;2022-08-16T10:25:42;9.50;;;8.50;;
6757;SDS011;3416;53.074;8.822;2022-08-16T10:28:10;10.60;;;9.50;;
6757;SDS011;3416;53.074;8.822;2022-08-16T10:30:39;10.00;;;9.20;;
6757;SDS011;3416;53.074;8.822;2022-08-16T10:33:08;12.13;;;7.83;;
6757;SDS011;3416;53.074;8.822;2022-08-16T10:35:36;14.67;;;9.50;;
6757;SDS011;3416;53.074;8.822;2022-08-16T10:38:03;11.50;;;8.90;;
6757;SDS011;3416;53.074;8.822;2022-08-16T10:40:36;9.13;;;8.23;;
6757;SDS011;3416;53.074;8.822;2022-08-16T10:43:03;12.80;;;7.47;;
6757;SDS011;3416;53.074;8.822;2022-08-16T10:45:31;7.97;;;7.17;;
6757;SDS011;3416;53.074;8.822;2022-08-16T10:47:59;12.83;;;8.10;;
6757;SDS011;3416;53.074;8.822;2022-08-16T10:50:27;9.20;;;7.60;;
6757;SDS011;3416;53.074;8.822;2022-08-16T10:52:54;9.70;;;8.40;;
6757;SDS011;3416;53.074;8.822;2022-08-16T10:55:22;8.23;;;7.53;;
6757;SDS011;3416;53.074;8.822;2022-08-16T10:57:49;10.40;;;6.97;;
6757;SDS011;3416;53.074;8.822;2022-08-16T11:00:19;7.57;;;6.97;;
6757;SDS011;3416;53.074;8.822;2022-08-16T11:02:46;8.33;;;7.50;;
6757;SDS011;3416;53.074;8.822;2022-08-16T11:05:16;8.63;;;7.70;;
6757;SDS011;3416;53.074;8.822;2022-08-16T11:07:44;11.73;;;7.30;;
6757;SDS011;3416;53.074;8.822;2022-08-16T11:10:14;7.03;;;6.03;;
6757;SDS011;3416;53.074;8.822;2022-08-16T11:12:43;5.83;;;5.20;;
6757;SDS011;3416;53.074;8.822;2022-08-16T11:15:10;6.70;;;6.00;;
6757;SDS011;3416;53.074;8.822;2022-08-16T11:17:38;5.50;;;4.40;;
6757;SDS011;3416;53.074;8.822;2022-08-16T11:20:09;5.83;;;5.30;;
6757;SDS011;3416;53.074;8.822;2022-08-16T11:22:39;5.87;;;5.30;;
6757;SDS011;3416;53.074;8.822;2022-08-16T11:25:07;7.30;;;5.50;;
6757;SDS011;3416;53.074;8.822;2022-08-16T11:27:34;6.00;;;4.53;;
6757;SDS011;3416;53.074;8.822;2022-08-16T11:30:02;6.23;;;5.20;;
6757;SDS011;3416;53.074;8.822;2022-08-16T11:32:30;7.47;;;5.27;;
6757;SDS011;3416;53.074;8.822;2022-08-16T11:34:57;5.53;;;5.03;;
6757;SDS011;3416;53.074;8.822;2022-08-16T11:37:24;7.63;;;4.17;;
6757;SDS011;3416;53.074;8.822;2022-08-16T11:39:53;4.90;;;4.40;;
6757;SDS011;3416;53.074;8.822;2022-08-16T11:42:20;5.93;;;5.43;;
6757;SDS011;3416;53.074;8.822;2022-08-16T11:44:47;4.97;;;4.47;;
6757;SDS011;3416;53.074;8.822;2022-08-16T11:47:14;8.90;;;5.30;;
6757;SDS011;3416;53.074;8.822;2022-08-16T11:49:42;6.03;;;4.30;;
6757;SDS011;3416;53.074;8.822;2022-08-16T11:52:09;5.20;;;4.63;;
6757;SDS011;3416;53.074;8.822;2022-08-16T11:54:36;8.43;;;5.00;;
6757;SDS011;3416;53.074;8.822;2022-08-16T11:57:06;6.37;;;5.13;;
6757;SDS011;3416;53.074;8.822;2022-08-16T11:59:34;7.50;;;5.20;;
6757;SDS011;3416;53.074;8.822;2022-08-16T12:02:02;6.53;;;4.80;;
6757;SDS011;3416;53.074;8.822;2022-08-16T12:04:30;6.23;;;4.70;;
6757;SDS011;3416;53.074;8.822;2022-08-16T12:06:58;4.83;;;4.43;;
6757;SDS011;3416;53.074;8.822;2022-08-16T12:09:25;4.80;;;4.40;;
6757;SDS011;3416;53.074;8.822;2022-08-16T12:11:52;4.67;;;4.13;;
6757;SDS011;3416;53.074;8.822;2022-08-16T12:14:22;5.00;;;4.50;;
6757;SDS011;3416;53.074;8.822;2022-08-16T12:16:49;5.70;;;4.60;;
6757;SDS011;3416;53.074;8.822;2022-08-16T12:19:21;5.33;;;4.40;;
6757;SDS011;3416;53.074;8.822;2022-08-16T12:21:48;8.53;;;5.03;;
6757;SDS011;3416;53.074;8.822;2022-08-16T12:24:16;5.50;;;4.73;;
6757;SDS011;3416;53.074;8.822;2022-08-16T12:26:43;5.00;;;4.50;;
6757;SDS011;3416;53.074;8.822;2022-08-16T12:29:10;4.60;;;4.20;;
6757;SDS011;3416;53.074;8.822;2022-08-16T12:31:39;5.60;;;4.50;;
6757;SDS011;3416;53.074;8.822;2022-08-16T12:34:06;5.30;;;4.20;;
6757;SDS011;3416;53.074;8.822;2022-08-16T12:36:34;5.17;;;4.67;;
6757;SDS011;3416;53.074;8.822;2022-08-16T12:39:02;6.03;;;5.40;;
6757;SDS011;3416;53.074;8.822;2022-08-16T12:41:33;6.50;;;5.00;;
6757;SDS011;3416;53.074;8.822;2022-08-16T12:44:01;5.30;;;4.67;;
6757;SDS011;3416;53.074;8.822;2022-08-16T12:46:29;5.53;;;4.60;;
6757;SDS011;3416;53.074;8.822;2022-08-16T12:48:58;5.97;;;5.10;;
6757;SDS011;3416;53.074;8.822;2022-08-16T12:51:26;6.23;;;4.93;;
6757;SDS011;3416;53.074;8.822;2022-08-16T12:53:56;5.27;;;4.43;;
6757;SDS011;3416;53.074;8.822;2022-08-16T12:56:27;6.50;;;5.27;;
6757;SDS011;3416;53.074;8.822;2022-08-16T12:58:57;6.63;;;5.10;;
6757;SDS011;3416;53.074;8.822;2022-08-16T13:01:27;8.33;;;5.20;;
6757;SDS011;3416;53.074;8.822;2022-08-16T13:03:59;7.00;;;5.37;;
6757;SDS011;3416;53.074;8.822;2022-08-16T13:06:27;6.73;;;6.10;;
6757;SDS011;3416;53.074;8.822;2022-08-16T13:08:54;6.23;;;5.40;;
6757;SDS011;3416;53.074;8.822;2022-08-16T13:11:28;6.40;;;5.77;;
6757;SDS011;3416;53.074;8.822;2022-08-16T13:13:59;6.67;;;6.07;;
6757;SDS011;3416;53.074;8.822;2022-08-16T13:16:27;6.47;;;5.87;;
6757;SDS011;3416;53.074;8.822;2022-08-16T13:18:54;9.80;;;6.40;;
6757;SDS011;3416;53.074;8.822;2022-08-16T13:21:22;8.33;;;5.73;;
6757;SDS011;3416;53.074;8.822;2022-08-16T13:23:49;8.00;;;6.30;;
6757;SDS011;3416;53.074;8.822;2022-08-16T13:26:16;7.17;;;6.47;;
6757;SDS011;3416;53.074;8.822;2022-08-16T13:28:43;6.90;;;6.20;;
6757;SDS011;3416;53.074;8.822;2022-08-16T13:31:10;7.37;;;6.20;;
6757;SDS011;3416;53.074;8.822;2022-08-16T13:33:37;8.27;;;7.53;;
6757;SDS011;3416;53.074;8.822;2022-08-16T13:36:05;7.67;;;6.30;;
6757;SDS011;3416;53.074;8.822;2022-08-16T13:38:35;8.00;;;6.40;;
6757;SDS011;3416;53.074;8.822;2022-08-16T13:41:04;10.93;;;5.63;;
6757;SDS011;3416;53.074;8.822;2022-08-16T13:43:33;7.57;;;6.63;;
6757;SDS011;3416;53.074;8.822;2022-08-16T13:46:01;7.10;;;6.17;;
6757;SDS011;3416;53.074;8.822;2022-08-16T13:48:28;7.47;;;6.87;;
6757;SDS011;3416;53.074;8.822;2022-08-16T13:50:55;6.63;;;6.03;;
6757;SDS011;3416;53.074;8.822;2022-08-16T13:53:23;8.27;;;7.30;;
6757;SDS011;3416;53.074;8.822;2022-08-16T13:55:54;6.30;;;5.50;;
6757;SDS011;3416;53.074;8.822;2022-08-16T13:58:22;6.27;;;5.63;;
6757;SDS011;3416;53.074;8.822;2022-08-16T14:00:49;5.73;;;5.20;;
6757;SDS011;3416;53.074;8.822;2022-08-16T14:03:16;6.70;;;5.60;;
6757;SDS011;3416;53.074;8.822;2022-08-16T14:05:48;6.10;;;5.60;;
6757;SDS011;3416;53.074;8.822;2022-08-16T14:08:16;6.63;;;5.47;;
6757;SDS011;3416;53.074;8.822;2022-08-16T14:10:43;5.63;;;5.13;;
6757;SDS011;3416;53.074;8.822;2022-08-16T14:13:12;5.30;;;4.90;;
6757;SDS011;3416;53.074;8.822;2022-08-16T14:15:39;5.23;;;4.83;;
6757;SDS011;3416;53.074;8.822;2022-08-16T14:18:08;5.87;;;5.30;;
6757;SDS011;3416;53.074;8.822;2022-08-16T14:20:35;8.20;;;5.00;;
6757;SDS011;3416;53.074;8.822;2022-08-16T14:23:02;5.47;;;4.90;;
6757;SDS011;3416;53.074;8.822;2022-08-16T14:25:30;8.00;;;6.23;;
6757;SDS011;3416;53.074;8.822;2022-08-16T14:27:57;8.70;;;6.43;;
6757;SDS011;3416;53.074;8.822;2022-08-16T14:30:29;9.13;;;5.60;;
6757;SDS011;3416;53.074;8.822;2022-08-16T14:32:56;6.27;;;5.70;;
6757;SDS011;3416;53.074;8.822;2022-08-16T14:35:25;11.60;;;6.93;;
6757;SDS011;3416;53.074;8.822;2022-08-16T14:37:54;6.50;;;5.90;;
6757;SDS011;3416;53.074;8.822;2022-08-16T14:40:26;7.47;;;6.60;;
6757;SDS011;3416;53.074;8.822;2022-08-16T14:42:55;7.80;;;6.40;;
6757;SDS011;3416;53.074;8.822;2022-08-16T14:45:23;8.87;;;6.80;;
6757;SDS011;3416;53.074;8.822;2022-08-16T14:47:53;7.93;;;6.77;;
6757;SDS011;3416;53.074;8.822;2022-08-16T14:50:22;9.60;;;6.43;;
6757;SDS011;3416;53.074;8.822;2022-08-16T14:52:52;8.97;;;6.53;;
6757;SDS011;3416;53.074;8.822;2022-08-16T14:55:21;6.70;;;6.20;;
6757;SDS011;3416;53.074;8.822;2022-08-16T14:57:49;6.67;;;5.97;;
6757;SDS011;3416;53.074;8.822;2022-08-16T15:00:19;7.07;;;6.30;;
6757;SDS011;3416;53.074;8.822;2022-08-16T15:02:49;6.40;;;5.87;;
6757;SDS011;3416;53.074;8.822;2022-08-16T15:05:19;8.13;;;6.67;;